Time;durP1;ratioP1;P1;durP2;ratioP2;P2;SDS_P1;SDS_P2;PMS_P1;PMS_P2;Temp;Humidity;BMP_temperature;BMP_pressure;BME280_temperature;BME280_humidity;BME280_pressure;Samples;Min_cycle;Max_cycle;Signal;HPM_P1;HPM_P2
2021/12/11 00:00:19;;;;;;;563.30;534.60;;;;;;;1.99;72.89;99958.31;678249;29;1622;-71
2021/12/11 00:00:49;;;;;;;532.85;504.52;;;;;;;2.00;72.79;99954.69;674173;29;117989;-70
2021/12/11 00:01:16;;;;;;;584.80;554.00;;;;;;;1.96;72.64;99946.16;674074;29;128695;-72
2021/12/11 00:01:46;;;;;;;556.95;528.28;;;;;;;2.03;72.63;99958.91;675772;28;137750;-71
2021/12/11 00:02:12;;;;;;;562.40;532.85;;;;;;;2.01;72.67;99953.72;679376;28;138146;-68
2021/12/11 00:02:34;;;;;;;538.05;509.40;;;;;;;1.95;72.22;99948.94;678462;28;99966;-70
2021/12/11 00:03:01;;;;;;;575.25;545.65;;;;;;;2.00;72.37;99959.19;677337;29;28058;-70
2021/12/11 00:03:26;;;;;;;577.30;546.35;;;;;;;1.96;72.43;99959.47;675207;29;131943;-70
2021/12/11 00:03:50;;;;;;;559.55;530.33;;;;;;;2.00;72.24;99961.84;675285;28;139535;-70
2021/12/11 00:04:17;;;;;;;541.85;514.58;;;;;;;1.97;72.15;99954.97;675056;29;69406;-70
2021/12/11 00:04:40;;;;;;;505.08;479.00;;;;;;;2.00;72.41;99965.34;672620;29;128205;-69
2021/12/11 00:05:03;;;;;;;546.00;517.45;;;;;;;1.97;72.26;99965.63;676889;29;81757;-72
2021/12/11 00:05:26;;;;;;;556.35;526.53;;;;;;;1.95;72.24;99962.25;675292;29;46977;-70
2021/12/11 00:05:53;;;;;;;543.60;515.42;;;;;;;1.99;72.28;99958.31;676700;29;69380;-70
2021/12/11 00:06:19;;;;;;;531.53;504.48;;;;;;;1.90;72.44;99960.03;676970;28;153844;-70
2021/12/11 00:06:43;;;;;;;550.30;521.25;;;;;;;1.92;72.42;99968.69;679324;28;72788;-69
2021/12/11 00:07:10;;;;;;;547.47;518.28;;;;;;;1.86;72.53;99953.28;675559;29;114799;-70
2021/12/11 00:07:31;;;;;;;511.00;484.95;;;;;;;1.88;72.35;99959.34;677299;29;138158;-72
2021/12/11 00:07:57;;;;;;;503.90;478.13;;;;;;;1.90;72.34;99964.53;680240;28;4255;-71
2021/12/11 00:08:20;;;;;;;568.45;537.88;;;;;;;1.82;72.55;99956.38;678695;29;72509;-70
2021/12/11 00:08:44;;;;;;;557.00;527.42;;;;;;;1.89;72.43;99968.97;678151;29;29564;-70
2021/12/11 00:09:13;;;;;;;546.60;518.70;;;;;;;1.87;72.46;99967.47;680223;28;62444;-69
2021/12/11 00:09:37;;;;;;;530.45;502.92;;;;;;;1.77;72.43;99956.78;676367;29;91837;-70
2021/12/11 00:10:02;;;;;;;494.35;468.48;;;;;;;1.87;72.52;99978.94;678768;29;92626;-70
2021/12/11 00:10:37;;;;;;;569.47;539.47;;;;;;;1.85;72.58;99980.91;678971;29;85536;-70
2021/12/11 00:11:05;;;;;;;555.53;526.80;;;;;;;1.83;72.64;99972.19;673411;29;96202;-71
2021/12/11 00:11:30;;;;;;;534.90;507.13;;;;;;;1.78;72.81;99967.28;673930;29;105170;-70
2021/12/11 00:12:12;;;;;;;525.78;498.02;;;;;;;1.79;72.93;99974.31;673647;29;109912;-70
2021/12/11 00:12:37;;;;;;;553.92;525.50;;;;;;;1.80;72.90;99975.13;675540;29;108399;-70
2021/12/11 00:13:07;;;;;;;339.30;321.10;;;;;;;1.74;72.89;99959.72;679836;28;80079;-73
2021/12/11 00:13:31;;;;;;;260.33;247.02;;;;;;;1.76;72.78;99977.25;680216;28;125926;-71
2021/12/11 00:13:59;;;;;;;286.00;271.35;;;;;;;1.68;72.99;99965.59;682687;28;61819;-70
2021/12/11 00:14:24;;;;;;;288.17;273.80;;;;;;;1.65;73.02;99965.91;680052;28;137720;-71
2021/12/11 00:14:52;;;;;;;262.42;248.73;;;;;;;1.65;72.92;99974.72;679623;28;67692;-71
2021/12/11 00:15:18;;;;;;;254.50;241.07;;;;;;;1.65;72.82;99965.91;678871;28;101354;-70
2021/12/11 00:15:42;;;;;;;247.07;234.25;;;;;;;1.69;72.96;99973.44;677281;28;139088;-71
2021/12/11 00:16:11;;;;;;;261.23;247.85;;;;;;;1.60;73.15;99958.34;680966;28;34165;-70
2021/12/11 00:16:34;;;;;;;257.83;244.32;;;;;;;1.68;72.89;99969.13;674886;29;137800;-75
2021/12/11 00:16:56;;;;;;;250.43;237.10;;;;;;;1.68;73.04;99966.47;682467;28;68532;-72
2021/12/11 00:17:22;;;;;;;275.60;261.23;;;;;;;1.66;72.93;99965.72;679451;28;82354;-70
2021/12/11 00:17:44;;;;;;;276.23;261.52;;;;;;;1.79;73.07;99982.28;650100;28;91894;-70
2021/12/11 00:18:08;;;;;;;263.80;249.23;;;;;;;1.74;72.95;99971.22;678351;29;1680;-70
2021/12/11 00:18:31;;;;;;;246.65;233.70;;;;;;;1.79;72.70;99984.13;678172;28;88668;-70
2021/12/11 00:18:55;;;;;;;276.77;262.40;;;;;;;1.72;72.99;99964.34;681842;28;59964;-71
2021/12/11 00:19:21;;;;;;;262.60;249.55;;;;;;;1.72;72.82;99957.19;677836;29;114054;-71
2021/12/11 00:19:42;;;;;;;256.23;242.52;;;;;;;1.80;72.90;99976.00;679226;29;77504;-72
2021/12/11 00:20:13;;;;;;;241.93;228.98;;;;;;;1.85;72.60;99982.72;681395;28;19027;-70
2021/12/11 00:20:40;;;;;;;264.45;250.98;;;;;;;1.73;72.69;99958.88;677542;29;133082;-71
2021/12/11 00:21:10;;;;;;;252.85;240.18;;;;;;;1.85;72.78;99982.72;685958;28;59365;-70
2021/12/11 00:21:31;;;;;;;248.90;235.70;;;;;;;1.78;72.60;99975.28;682747;28;49386;-70
2021/12/11 00:21:55;;;;;;;235.90;224.10;;;;;;;1.88;72.68;99987.75;682597;28;22394;-72
2021/12/11 00:22:21;;;;;;;253.73;240.98;;;;;;;1.87;72.68;99988.75;679060;28;51880;-71
2021/12/11 00:22:43;;;;;;;251.55;239.05;;;;;;;1.82;72.53;99977.66;676661;29;99185;-71
2021/12/11 00:23:07;;;;;;;245.27;232.18;;;;;;;1.86;72.62;99974.59;679524;29;46239;-70
2021/12/11 00:23:31;;;;;;;263.98;250.07;;;;;;;1.83;72.39;99976.69;682556;28;69771;-73
2021/12/11 00:24:05;;;;;;;267.33;253.05;;;;;;;1.85;72.50;99978.25;682782;28;92517;-70
2021/12/11 00:24:30;;;;;;;241.65;229.20;;;;;;;1.88;72.60;99983.28;681218;28;130385;-70
2021/12/11 00:24:53;;;;;;;243.63;230.60;;;;;;;1.77;72.40;99972.75;680143;28;114877;-71
2021/12/11 00:25:15;;;;;;;255.63;242.15;;;;;;;1.86;72.50;99995.88;679731;29;62902;-70
2021/12/11 00:25:41;;;;;;;245.13;232.07;;;;;;;1.78;72.59;99977.13;679667;28;69084;-71
2021/12/11 00:26:05;;;;;;;303.17;287.02;;;;;;;1.85;72.58;99993.38;679731;28;100268;-70
2021/12/11 00:26:32;;;;;;;337.42;320.50;;;;;;;1.72;72.53;99970.50;683611;28;92573;-75
2021/12/11 00:26:59;;;;;;;317.35;301.10;;;;;;;1.78;72.53;99998.41;680328;28;121722;-71
2021/12/11 00:27:25;;;;;;;298.08;282.38;;;;;;;1.69;72.65;99991.25;679690;28;131324;-73
2021/12/11 00:27:50;;;;;;;309.13;292.15;;;;;;;1.62;72.40;99978.50;655257;28;132513;-72
2021/12/11 00:28:12;;;;;;;307.45;291.70;;;;;;;1.55;72.59;99976.50;683181;28;115656;-71
2021/12/11 00:28:42;;;;;;;292.95;278.27;;;;;;;1.59;72.75;99989.41;682717;28;45965;-70
2021/12/11 00:29:06;;;;;;;272.65;258.05;;;;;;;1.56;72.72;99987.03;679893;28;137677;-71
2021/12/11 00:29:28;;;;;;;295.95;280.30;;;;;;;1.52;72.83;99993.63;681441;28;69268;-70
2021/12/11 00:29:52;;;;;;;304.20;288.60;;;;;;;1.54;72.84;100001.47;680267;29;43352;-70
2021/12/11 00:30:22;;;;;;;291.52;276.63;;;;;;;1.42;73.17;99985.59;679823;28;132349;-70
2021/12/11 00:30:47;;;;;;;265.42;251.45;;;;;;;1.46;72.85;99999.50;675859;29;96158;-71
2021/12/11 00:31:08;;;;;;;275.50;261.10;;;;;;;1.38;73.08;99986.00;675611;29;114551;-70
2021/12/11 00:31:30;;;;;;;280.75;266.70;;;;;;;1.37;73.37;99987.00;678344;29;24115;-71
2021/12/11 00:31:54;;;;;;;269.80;256.35;;;;;;;1.34;73.40;99982.78;682155;28;27407;-70
2021/12/11 00:32:23;;;;;;;262.95;249.13;;;;;;;1.32;73.47;99986.56;678526;29;91968;-70
2021/12/11 00:32:48;;;;;;;297.10;281.30;;;;;;;1.35;73.43;99996.91;679812;28;91731;-70
2021/12/11 00:33:12;;;;;;;287.73;272.67;;;;;;;1.37;73.53;100000.28;683906;28;92198;-71
2021/12/11 00:33:37;;;;;;;278.25;263.05;;;;;;;1.35;73.55;100003.09;686437;28;61821;-69
2021/12/11 00:34:05;;;;;;;263.20;249.50;;;;;;;1.37;73.80;100006.44;686593;28;39327;-70
2021/12/11 00:34:32;;;;;;;289.83;274.33;;;;;;;1.27;73.74;99989.63;686832;28;138094;-70
2021/12/11 00:34:58;;;;;;;270.55;256.13;;;;;;;1.32;73.83;100002.53;687475;28;115142;-71
2021/12/11 00:35:21;;;;;;;255.20;241.55;;;;;;;1.36;74.06;100006.59;685551;28;113351;-73
2021/12/11 00:35:43;;;;;;;272.48;257.85;;;;;;;1.28;73.81;99996.63;680852;28;69497;-69
2021/12/11 00:36:08;;;;;;;283.00;268.60;;;;;;;1.28;73.96;99998.44;681762;28;36206;-69
2021/12/11 00:36:32;;;;;;;270.33;256.08;;;;;;;1.22;74.00;99987.38;679430;28;115117;-71
2021/12/11 00:36:56;;;;;;;257.08;243.75;;;;;;;1.23;74.14;99991.69;680206;28;91927;-70
2021/12/11 00:37:25;;;;;;;248.60;235.60;;;;;;;1.21;74.24;99999.00;678131;29;83590;-70
2021/12/11 00:37:47;;;;;;;268.57;253.57;;;;;;;1.26;74.04;99998.59;676528;28;135998;-72
2021/12/11 00:38:13;;;;;;;254.82;241.15;;;;;;;1.22;74.14;99995.34;680454;29;39655;-74
2021/12/11 00:38:34;;;;;;;243.88;230.85;;;;;;;1.28;74.35;100004.59;678105;29;138161;-70
2021/12/11 00:39:01;;;;;;;250.35;238.13;;;;;;;1.18;74.18;99991.28;682948;28;46501;-71
2021/12/11 00:39:23;;;;;;;257.60;244.68;;;;;;;1.25;74.30;100005.72;676800;29;138090;-70
2021/12/11 00:39:50;;;;;;;247.10;234.73;;;;;;;1.20;74.43;100007.94;682086;28;45212;-69
2021/12/11 00:40:16;;;;;;;237.27;224.98;;;;;;;1.23;74.57;100012.16;678031;28;137308;-72
2021/12/11 00:40:39;;;;;;;248.40;236.23;;;;;;;1.18;74.43;100003.75;678257;28;137962;-72
2021/12/11 00:41:00;;;;;;;257.02;243.95;;;;;;;1.14;74.60;99999.66;682169;28;41202;-71
2021/12/11 00:41:24;;;;;;;244.10;232.00;;;;;;;1.16;74.50;100005.69;687799;28;22398;-69
2021/12/11 00:41:53;;;;;;;227.48;216.07;;;;;;;1.22;74.60;100013.13;686153;28;115145;-71
2021/12/11 00:42:17;;;;;;;263.10;250.15;;;;;;;1.20;74.70;100010.59;687682;28;60093;-72
2021/12/11 00:42:39;;;;;;;259.05;246.50;;;;;;;1.16;74.84;100008.34;684541;28;39630;-70
2021/12/11 00:43:04;;;;;;;250.98;238.52;;;;;;;1.13;74.73;99998.81;685329;28;46153;-71
2021/12/11 00:43:34;;;;;;;238.65;226.65;;;;;;;1.20;75.00;100015.09;682078;28;136245;-70
2021/12/11 00:44:00;;;;;;;252.18;239.35;;;;;;;1.21;74.73;100019.44;682104;28;137836;-71
2021/12/11 00:44:33;;;;;;;260.33;247.48;;;;;;;1.19;74.89;100016.91;679987;28;137949;-70
2021/12/11 00:44:55;;;;;;;247.38;234.95;;;;;;;1.18;74.92;100017.88;681286;28;106687;-69
2021/12/11 00:45:21;;;;;;;239.13;227.02;;;;;;;1.15;75.04;100018.13;681224;29;22242;-70
2021/12/11 00:45:45;;;;;;;258.05;245.15;;;;;;;1.11;74.92;100006.06;676009;29;104664;-71
2021/12/11 00:46:09;;;;;;;265.92;252.85;;;;;;;1.17;75.00;100021.50;678646;28;91970;-71
2021/12/11 00:46:31;;;;;;;257.27;244.07;;;;;;;1.10;75.03;100009.72;681582;28;91893;-71
2021/12/11 00:46:52;;;;;;;245.50;233.02;;;;;;;1.14;75.14;100008.47;682226;28;46292;-69
2021/12/11 00:47:15;;;;;;;240.52;228.23;;;;;;;1.14;75.09;100018.28;687371;28;1685;-70
2021/12/11 00:47:43;;;;;;;246.23;233.88;;;;;;;1.14;75.08;100018.28;686364;28;67491;-77
2021/12/11 00:48:07;;;;;;;268.60;254.80;;;;;;;1.15;75.09;100012.81;682619;28;180461;-70
2021/12/11 00:48:30;;;;;;;259.35;246.05;;;;;;;1.20;75.11;100023.06;686951;28;92066;-71
2021/12/11 00:48:51;;;;;;;249.77;237.27;;;;;;;1.20;75.13;100025.72;684788;28;69174;-72
2021/12/11 00:49:16;;;;;;;238.77;227.07;;;;;;;1.20;75.09;100025.72;688924;28;21470;-70
2021/12/11 00:49:48;;;;;;;231.57;219.88;;;;;;;1.20;75.13;100026.56;686210;28;114570;-72
2021/12/11 00:50:11;;;;;;;249.93;237.10;;;;;;;1.22;75.06;100037.06;682760;28;137348;-72
2021/12/11 00:50:35;;;;;;;243.52;231.48;;;;;;;1.17;75.02;100024.16;681915;28;67573;-70
2021/12/11 00:51:02;;;;;;;236.43;224.73;;;;;;;1.22;74.96;100031.75;681348;28;92087;-72
2021/12/11 00:51:23;;;;;;;248.77;236.38;;;;;;;1.15;74.92;100023.47;679599;28;136411;-72
2021/12/11 00:51:48;;;;;;;256.20;243.07;;;;;;;1.19;74.87;100032.00;684082;28;15079;-71
2021/12/11 00:52:09;;;;;;;246.20;234.07;;;;;;;1.18;74.85;100035.66;678959;28;138262;-71
2021/12/11 00:52:36;;;;;;;236.18;224.27;;;;;;;1.19;74.87;100035.53;685530;28;7046;-71
2021/12/11 00:53:06;;;;;;;239.95;227.65;;;;;;;1.18;74.90;100033.84;678449;28;156395;-71
2021/12/11 00:53:29;;;;;;;252.88;240.45;;;;;;;1.14;74.93;100029.75;677100;28;137600;-73
2021/12/11 00:53:52;;;;;;;245.07;233.07;;;;;;;1.19;74.96;100034.66;676974;29;68307;-71
2021/12/11 00:54:15;;;;;;;233.35;221.63;;;;;;;1.19;75.03;100037.31;678751;29;17336;-71
2021/12/11 00:54:39;;;;;;;227.55;216.25;;;;;;;1.17;74.81;100026.00;676207;29;69297;-72
2021/12/11 00:55:06;;;;;;;251.00;238.75;;;;;;;1.19;74.96;100037.31;674109;29;69101;-72
2021/12/11 00:55:31;;;;;;;248.98;236.07;;;;;;;1.18;75.12;100030.34;674586;29;137925;-71
2021/12/11 00:55:55;;;;;;;240.02;228.02;;;;;;;1.22;75.07;100034.41;678659;28;91939;-71
2021/12/11 00:56:19;;;;;;;230.77;219.27;;;;;;;1.19;74.90;100032.88;681179;28;97619;-71
2021/12/11 00:56:41;;;;;;;227.63;215.88;;;;;;;1.23;75.02;100041.41;679077;28;70694;-71
2021/12/11 00:57:02;;;;;;;246.48;233.70;;;;;;;1.22;75.05;100040.59;682587;28;45250;-70
2021/12/11 00:57:24;;;;;;;244.15;231.65;;;;;;;1.18;75.03;100033.84;679313;29;1609;-74
2021/12/11 00:57:46;;;;;;;234.80;222.75;;;;;;;1.20;75.00;100039.03;675679;29;69433;-72
2021/12/11 00:58:10;;;;;;;222.02;210.82;;;;;;;1.17;74.94;100033.97;676019;29;23110;-75
2021/12/11 00:58:35;;;;;;;230.05;218.48;;;;;;;1.22;74.99;100040.59;674591;29;111458;-74
2021/12/11 00:59:00;;;;;;;240.70;228.68;;;;;;;1.22;75.03;100037.94;679546;28;92844;-71
2021/12/11 00:59:21;;;;;;;228.23;216.82;;;;;;;1.20;74.85;100045.16;681916;28;112923;-71
2021/12/11 00:59:42;;;;;;;220.85;209.65;;;;;;;1.18;74.96;100043.63;686838;28;22280;-71
2021/12/11 01:00:07;;;;;;;226.85;215.50;;;;;;;1.19;74.93;100045.31;684750;28;46388;-74
2021/12/11 01:00:34;;;;;;;245.57;233.10;;;;;;;1.19;74.87;100045.31;683518;28;114124;-73
2021/12/11 01:00:59;;;;;;;235.07;223.23;;;;;;;1.21;75.02;100051.34;682730;28;136304;-72
2021/12/11 01:01:24;;;;;;;226.63;214.93;;;;;;;1.21;75.05;100051.34;687727;28;38250;-71
2021/12/11 01:01:48;;;;;;;219.85;208.60;;;;;;;1.20;74.82;100053.16;682804;28;111770;-70
2021/12/11 01:02:09;;;;;;;240.80;228.95;;;;;;;1.21;74.84;100048.69;683876;28;92338;-71
2021/12/11 01:02:32;;;;;;;243.80;231.60;;;;;;;1.16;74.82;100042.91;686620;28;22301;-72
2021/12/11 01:02:55;;;;;;;239.68;226.63;;;;;;;1.17;74.88;100044.59;681401;28;68319;-70
2021/12/11 01:03:19;;;;;;;221.00;209.77;;;;;;;1.13;74.87;100038.72;682206;28;69509;-73
2021/12/11 01:03:45;;;;;;;219.43;208.52;;;;;;;1.06;74.81;100030.41;682873;28;92108;-71
2021/12/11 01:04:09;;;;;;;244.65;232.32;;;;;;;1.13;74.99;100048.50;681821;28;138244;-74
2021/12/11 01:04:33;;;;;;;242.85;230.55;;;;;;;1.17;74.96;100055.25;683846;28;84681;-74
2021/12/11 01:04:54;;;;;;;233.77;222.30;;;;;;;1.17;75.01;100057.91;684523;28;77969;-71
2021/12/11 01:05:16;;;;;;;225.10;213.70;;;;;;;1.15;74.79;100055.38;685889;28;43794;-75
2021/12/11 01:05:42;;;;;;;239.90;227.82;;;;;;;1.08;74.96;100041.78;685787;28;44180;-75
2021/12/11 01:06:09;;;;;;;250.07;237.73;;;;;;;1.11;74.94;100045.97;682593;28;115417;-71
2021/12/11 01:06:33;;;;;;;236.68;225.07;;;;;;;1.14;75.04;100047.53;681976;28;137655;-73
2021/12/11 01:06:56;;;;;;;233.60;221.00;;;;;;;1.12;74.92;100049.50;685467;28;36344;-71
2021/12/11 01:07:21;;;;;;;244.82;232.68;;;;;;;1.12;74.84;100052.16;682087;28;67319;-74
2021/12/11 01:07:43;;;;;;;251.90;239.20;;;;;;;1.13;74.90;100052.03;676925;28;90103;-71
2021/12/11 01:08:19;;;;;;;242.93;230.32;;;;;;;1.14;74.79;100058.16;682895;28;46084;-71
2021/12/11 01:08:44;;;;;;;217.60;206.38;;;;;;;1.07;74.93;100048.06;681473;28;106805;-72
2021/12/11 01:09:09;;;;;;;243.73;231.20;;;;;;;1.10;74.89;100049.63;678650;28;114856;-71
2021/12/11 01:09:33;;;;;;;250.10;237.75;;;;;;;1.12;74.90;100062.78;679156;28;138027;-72
2021/12/11 01:09:56;;;;;;;239.48;227.77;;;;;;;1.12;74.97;100060.13;685529;28;68997;-72
2021/12/11 01:10:23;;;;;;;230.00;218.30;;;;;;;1.07;75.05;100053.38;685964;28;92729;-70
2021/12/11 01:10:48;;;;;;;251.95;239.43;;;;;;;1.13;74.99;100065.31;684634;28;117341;-71
2021/12/11 01:11:12;;;;;;;255.60;243.18;;;;;;;1.14;75.04;100063.50;686849;28;115058;-72
2021/12/11 01:11:36;;;;;;;245.95;233.65;;;;;;;1.11;75.22;100050.47;687548;28;115097;-73
2021/12/11 01:12:04;;;;;;;237.60;225.30;;;;;;;1.13;75.05;100059.13;689493;28;69341;-74
2021/12/11 01:12:35;;;;;;;242.40;230.00;;;;;;;1.16;75.02;100059.72;686285;28;136310;-71
2021/12/11 01:13:01;;;;;;;263.00;249.50;;;;;;;1.17;75.14;100058.75;685951;28;127565;-74
2021/12/11 01:13:26;;;;;;;249.60;237.20;;;;;;;1.17;75.00;100058.75;686960;28;138008;-71
2021/12/11 01:13:51;;;;;;;237.45;225.23;;;;;;;1.17;75.10;100063.22;686357;28;92197;-71
2021/12/11 01:14:22;;;;;;;236.75;224.60;;;;;;;1.15;74.98;100060.69;683171;28;115082;-75
2021/12/11 01:14:51;;;;;;;250.55;237.82;;;;;;;1.13;74.91;100061.78;682599;28;137386;-71
2021/12/11 01:15:16;;;;;;;235.25;223.55;;;;;;;1.06;75.03;100057.00;682464;28;139304;-72
2021/12/11 01:15:44;;;;;;;239.13;227.20;;;;;;;1.12;74.80;100062.78;684114;28;91137;-71
2021/12/11 01:16:12;;;;;;;264.02;250.43;;;;;;;1.15;75.04;100065.19;681220;28;134530;-71
2021/12/11 01:16:34;;;;;;;250.02;237.15;;;;;;;1.11;74.76;100063.75;682705;28;138060;-70
2021/12/11 01:17:06;;;;;;;239.95;228.13;;;;;;;1.08;74.93;100060.41;681642;28;46393;-71
2021/12/11 01:17:37;;;;;;;229.75;218.48;;;;;;;1.05;74.70;100059.78;680820;28;136162;-71
2021/12/11 01:18:11;;;;;;;252.75;239.82;;;;;;;1.08;74.88;100072.81;681416;28;157389;-74
2021/12/11 01:18:35;;;;;;;239.43;227.52;;;;;;;1.02;74.86;100066.25;684228;28;137700;-74
2021/12/11 01:18:59;;;;;;;234.15;222.65;;;;;;;1.01;74.88;100069.88;684907;28;94295;-74
2021/12/11 01:19:22;;;;;;;267.65;254.57;;;;;;;1.05;74.85;100076.63;686724;28;92303;-75
2021/12/11 01:19:45;;;;;;;274.98;261.17;;;;;;;1.01;74.75;100067.22;687282;28;71229;-72
2021/12/11 01:20:12;;;;;;;267.20;253.90;;;;;;;1.06;75.07;100072.13;682258;28;69146;-76
2021/12/11 01:20:54;;;;;;;249.85;237.65;;;;;;;0.98;75.02;100067.47;681385;28;96610;-70
2021/12/11 01:21:43;;;;;;;238.50;226.25;;;;;;;1.03;75.19;100073.22;678433;28;137645;-74
2021/12/11 01:22:11;;;;;;;259.23;246.52;;;;;;;1.08;75.26;100080.81;684261;28;137654;-73
2021/12/11 01:22:35;;;;;;;240.93;228.63;;;;;;;1.10;75.33;100084.19;685252;28;137375;-71
2021/12/11 01:22:57;;;;;;;232.18;220.00;;;;;;;1.11;75.24;100082.38;657347;28;113676;-71
2021/12/11 01:23:34;;;;;;;223.25;212.05;;;;;;;1.12;75.36;100082.25;686298;28;23490;-70
2021/12/11 01:24:11;;;;;;;254.65;242.18;;;;;;;1.10;75.21;100078.88;682663;28;137347;-71
2021/12/11 01:24:43;;;;;;;222.30;211.07;;;;;;;1.07;75.26;100073.81;682095;28;136551;-71
2021/12/11 01:25:10;;;;;;;224.63;213.45;;;;;;;1.13;75.12;100089.25;685176;28;138052;-72
2021/12/11 01:25:33;;;;;;;223.93;212.43;;;;;;;1.07;75.33;100074.66;684639;28;137058;-70
2021/12/11 01:25:55;;;;;;;250.95;238.30;;;;;;;1.11;74.96;100083.22;682755;28;33414;-75
2021/12/11 01:26:20;;;;;;;247.65;235.32;;;;;;;1.13;75.22;100078.63;682972;28;45370;-73
2021/12/11 01:26:46;;;;;;;234.30;222.50;;;;;;;1.13;75.33;100089.25;680686;28;115123;-71
2021/12/11 01:27:08;;;;;;;222.10;210.63;;;;;;;1.07;75.34;100079.97;680181;28;138109;-71
2021/12/11 01:27:30;;;;;;;235.15;223.43;;;;;;;1.05;75.42;100070.44;683174;28;44284;-70
2021/12/11 01:27:55;;;;;;;250.60;238.10;;;;;;;1.14;75.18;100090.09;657401;28;46427;-71
2021/12/11 01:28:17;;;;;;;233.50;221.88;;;;;;;1.10;75.38;100089.53;683024;28;114503;-71
2021/12/11 01:28:39;;;;;;;223.18;211.77;;;;;;;1.15;75.33;100091.78;686830;28;68116;-72
2021/12/11 01:29:00;;;;;;;215.48;204.60;;;;;;;1.06;75.04;100078.28;689278;28;22408;-70
2021/12/11 01:29:27;;;;;;;245.77;233.73;;;;;;;1.14;75.18;100095.41;688970;28;23475;-71
2021/12/11 01:29:56;;;;;;;259.42;246.23;;;;;;;1.06;75.12;100090.75;685086;28;137731;-70
2021/12/11 01:30:19;;;;;;;253.00;240.52;;;;;;;1.08;75.13;100094.97;685028;28;137783;-70
2021/12/11 01:30:42;;;;;;;243.73;231.57;;;;;;;1.06;75.18;100096.91;687489;28;69412;-72
2021/12/11 01:31:07;;;;;;;228.43;216.88;;;;;;;1.10;75.01;100091.31;686494;28;90557;-72
2021/12/11 01:31:28;;;;;;;219.30;208.20;;;;;;;1.11;74.94;100098.34;686759;28;85538;-71
2021/12/11 01:31:51;;;;;;;237.15;224.75;;;;;;;1.10;75.12;100099.28;689224;28;20721;-71
2021/12/11 01:32:15;;;;;;;238.40;226.52;;;;;;;1.05;75.01;100100.56;689726;28;13580;-71
2021/12/11 01:32:36;;;;;;;227.77;216.48;;;;;;;1.01;74.91;100093.78;687708;28;69281;-71
2021/12/11 01:32:58;;;;;;;222.13;210.73;;;;;;;0.99;74.73;100086.94;683942;28;42197;-71
2021/12/11 01:33:20;;;;;;;239.15;226.77;;;;;;;1.00;75.05;100086.78;681265;28;44407;-70
2021/12/11 01:33:43;;;;;;;244.93;232.10;;;;;;;1.04;74.99;100098.03;680234;29;43687;-71
2021/12/11 01:34:08;;;;;;;232.80;220.95;;;;;;;1.01;75.04;100095.63;681502;29;15892;-73
2021/12/11 01:34:29;;;;;;;221.25;210.00;;;;;;;0.95;74.96;100086.34;678289;29;106610;-72
2021/12/11 01:34:52;;;;;;;240.20;228.07;;;;;;;0.98;74.99;100094.06;683035;28;46387;-73
2021/12/11 01:35:16;;;;;;;245.57;232.88;;;;;;;1.01;75.02;100100.94;687015;28;42681;-71
2021/12/11 01:35:38;;;;;;;237.23;225.30;;;;;;;1.01;75.10;100096.47;684630;28;90372;-71
2021/12/11 01:35:59;;;;;;;231.00;219.50;;;;;;;0.99;75.04;100100.25;685942;28;44685;-71
2021/12/11 01:36:21;;;;;;;223.85;212.38;;;;;;;1.00;75.09;100101.91;686555;28;46450;-73
2021/12/11 01:36:44;;;;;;;246.68;234.20;;;;;;;0.95;74.81;100096.16;688216;28;45806;-74
2021/12/11 01:37:06;;;;;;;250.70;238.45;;;;;;;1.00;75.11;100099.25;689949;28;42788;-71
2021/12/11 01:37:29;;;;;;;241.35;229.45;;;;;;;0.93;75.12;100093.63;690085;28;46403;-71
2021/12/11 01:38:00;;;;;;;231.15;219.27;;;;;;;0.97;75.16;100099.50;688445;28;69433;-75
2021/12/11 01:38:29;;;;;;;244.10;232.27;;;;;;;0.97;75.08;100100.38;686949;28;137582;-73
2021/12/11 01:38:54;;;;;;;251.73;238.77;;;;;;;0.87;74.95;100089.66;686203;28;61370;-74
2021/12/11 01:39:17;;;;;;;235.50;223.57;;;;;;;0.99;75.12;100105.56;684695;28;92261;-72
2021/12/11 01:39:41;;;;;;;224.90;213.90;;;;;;;0.93;75.00;100096.28;684129;28;90798;-73
2021/12/11 01:40:06;;;;;;;243.07;231.15;;;;;;;0.92;74.95;100102.56;684871;28;1105;-71
2021/12/11 01:40:31;;;;;;;252.18;239.18;;;;;;;0.88;75.13;100094.00;680415;28;116215;-71
2021/12/11 01:40:59;;;;;;;246.13;233.27;;;;;;;0.93;74.84;100103.41;682603;28;115102;-71
2021/12/11 01:41:23;;;;;;;230.65;218.95;;;;;;;0.83;74.80;100085.59;676742;29;136137;-70
2021/12/11 01:41:46;;;;;;;262.42;249.13;;;;;;;0.89;74.85;100103.69;680335;29;50349;-71
2021/12/11 01:42:09;;;;;;;266.83;253.73;;;;;;;0.87;75.03;100104.78;679247;29;70105;-72
2021/12/11 01:42:31;;;;;;;262.93;249.90;;;;;;;0.86;74.86;100101.28;678894;29;91093;-70
2021/12/11 01:42:54;;;;;;;248.90;236.40;;;;;;;0.90;75.11;100109.84;679796;28;67637;-71
2021/12/11 01:43:15;;;;;;;240.25;227.88;;;;;;;0.84;75.05;100105.03;686373;28;1595;-74
2021/12/11 01:43:41;;;;;;;231.65;219.85;;;;;;;0.83;75.19;100098.88;686731;28;46412;-72
2021/12/11 01:44:07;;;;;;;250.48;238.13;;;;;;;0.82;75.04;100105.16;686333;28;113684;-71
2021/12/11 01:44:32;;;;;;;252.18;239.98;;;;;;;0.82;75.16;100104.31;685817;28;137662;-71
2021/12/11 01:44:54;;;;;;;245.80;233.43;;;;;;;0.82;75.06;100110.47;686075;28;115126;-73
2021/12/11 01:45:16;;;;;;;237.32;225.13;;;;;;;0.77;75.11;100102.06;688668;28;45260;-73
2021/12/11 01:45:42;;;;;;;253.88;240.98;;;;;;;0.79;75.29;100102.75;686894;28;69195;-71
2021/12/11 01:46:06;;;;;;;254.43;241.90;;;;;;;0.83;75.20;100119.28;686391;28;100791;-72
2021/12/11 01:46:28;;;;;;;245.02;233.02;;;;;;;0.83;75.38;100114.84;686815;28;93042;-74
2021/12/11 01:46:49;;;;;;;235.57;223.95;;;;;;;0.82;75.13;100117.63;685534;28;46361;-74
2021/12/11 01:47:13;;;;;;;256.40;243.57;;;;;;;0.77;75.35;100107.38;687378;28;1740;-71
2021/12/11 01:47:37;;;;;;;267.33;253.93;;;;;;;0.83;75.20;100111.31;685619;28;92279;-71
2021/12/11 01:48:01;;;;;;;257.50;244.93;;;;;;;0.83;75.57;100114.84;682548;28;110721;-71
2021/12/11 01:48:27;;;;;;;247.70;235.60;;;;;;;0.84;75.45;100113.84;683810;28;92610;-72
2021/12/11 01:48:58;;;;;;;239.02;226.52;;;;;;;0.83;75.41;100113.97;681953;28;137778;-70
2021/12/11 01:49:21;;;;;;;301.42;286.58;;;;;;;0.82;75.36;100117.63;681547;28;160565;-73
2021/12/11 01:49:47;;;;;;;301.15;285.98;;;;;;;0.89;75.52;100121.44;681479;28;92266;-71
2021/12/11 01:50:15;;;;;;;284.55;270.25;;;;;;;0.87;75.66;100121.56;682572;28;138375;-71
2021/12/11 01:50:40;;;;;;;279.90;266.20;;;;;;;0.83;75.52;100111.31;682885;28;137671;-74
2021/12/11 01:51:05;;;;;;;398.40;379.00;;;;;;;0.89;75.48;100126.75;686463;28;92031;-71
2021/12/11 01:51:30;;;;;;;429.25;407.65;;;;;;;0.84;75.65;100108.53;682182;28;138416;-74
2021/12/11 01:51:56;;;;;;;417.42;396.83;;;;;;;0.87;75.44;100123.38;682685;28;113461;-72
2021/12/11 01:52:26;;;;;;;413.38;393.52;;;;;;;0.87;75.62;100121.56;682577;28;137589;-73
2021/12/11 01:52:54;;;;;;;459.02;436.30;;;;;;;0.89;75.63;100129.41;681578;28;137768;-73
2021/12/11 01:53:24;;;;;;;437.52;415.02;;;;;;;0.85;75.60;100117.38;679883;28;137395;-75
2021/12/11 01:53:49;;;;;;;442.30;420.60;;;;;;;0.84;75.46;100121.81;683830;28;127767;-71
2021/12/11 01:54:16;;;;;;;429.80;408.77;;;;;;;0.90;75.58;100128.44;684835;28;52590;-71
2021/12/11 01:54:43;;;;;;;479.80;456.35;;;;;;;0.86;75.56;100121.69;682388;28;137820;-73